createdAt,value
2023-01-04T00:02:00.485Z,101566.47
2023-01-04T00:04:27.479Z,101579.88
2023-01-04T00:06:54.506Z,101573.31
2023-01-04T00:09:23.557Z,101572.38
2023-01-04T00:11:50.442Z,101582.31
2023-01-04T00:14:19.083Z,101592.75
2023-01-04T00:16:46.126Z,101577.91
2023-01-04T00:19:13.403Z,101581.72
2023-01-04T00:21:41.372Z,101588.91
2023-01-04T00:24:09.701Z,101592.97
2023-01-04T00:26:37.640Z,101588.56
2023-01-04T00:29:07.203Z,101589.47
2023-01-04T00:31:35.637Z,101589.72
2023-01-04T00:34:04.716Z,101585.66
2023-01-04T00:36:33.801Z,101579.38
2023-01-04T00:39:15.207Z,101567.75
2023-01-04T00:42:04.220Z,101574.22
2023-01-04T00:44:35.439Z,101569.31
2023-01-04T00:47:05.283Z,101568.06
2023-01-04T00:49:40.377Z,101566.22
2023-01-04T00:52:08.774Z,101568.56
2023-01-04T00:54:36.697Z,101557.16
2023-01-04T00:57:05.277Z,101554.06
2023-01-04T00:59:39.329Z,101546.31
2023-01-04T01:02:08.402Z,101550.78
2023-01-04T01:04:35.504Z,101544.91
2023-01-04T01:07:02.465Z,101541.19
2023-01-04T01:09:32.579Z,101548.06
2023-01-04T01:11:59.473Z,101544.41
2023-01-04T01:14:26.406Z,101543.16
2023-01-04T01:16:57.540Z,101531.56
2023-01-04T01:19:28.228Z,101532.91
2023-01-04T01:21:56.984Z,101547.34
2023-01-04T01:24:40.334Z,101545.78
2023-01-04T01:27:08.268Z,101543.53
2023-01-04T01:29:42.427Z,101537.03
2023-01-04T01:32:12.372Z,101536.78
2023-01-04T01:34:44.323Z,101531.50
2023-01-04T01:37:23.349Z,101542.03
2023-01-04T01:39:53.334Z,101534.06
2023-01-04T01:42:23.419Z,101539.06
2023-01-04T01:45:11.340Z,101529.06
2023-01-04T01:47:43.900Z,101530.06
2023-01-04T01:50:41.418Z,101525.06
2023-01-04T01:53:09.925Z,101519.41
2023-01-04T01:55:41.035Z,101521.91
2023-01-04T01:58:13.833Z,101522.22
2023-01-04T02:00:40.864Z,101527.75
2023-01-04T02:03:19.415Z,101519.34
2023-01-04T02:05:51.863Z,101520.25
2023-01-04T02:08:22.673Z,101509.66
2023-01-04T02:10:57.152Z,101514.50
2023-01-04T02:13:48.625Z,101511.16
2023-01-04T02:16:35.424Z,101508.47
2023-01-04T02:20:02.159Z,101502.13
2023-01-04T02:23:27.439Z,101497.47
2023-01-04T02:25:55.288Z,101490.22
2023-01-04T02:29:44.100Z,101482.06
2023-01-04T02:32:32.184Z,101477.47
2023-01-04T02:35:32.243Z,101480.41
2023-01-04T02:38:40.543Z,101489.81
2023-01-04T02:41:35.996Z,101492.72
2023-01-04T02:44:34.311Z,101498.31
2023-01-04T02:47:18.473Z,101491.22
2023-01-04T02:50:14.550Z,101489.38
2023-01-04T02:52:41.501Z,101486.16
2023-01-04T02:55:09.258Z,101487.41
2023-01-04T02:57:46.017Z,101487.59
2023-01-04T03:01:26.638Z,101486.22
2023-01-04T03:04:57.147Z,101480.72
2023-01-04T03:07:50.175Z,101476.75
2023-01-04T03:11:03.153Z,101468.34
2023-01-04T03:13:49.100Z,101465.91
2023-01-04T03:16:34.294Z,101473.53
2023-01-04T03:19:04.373Z,101467.16
2023-01-04T03:21:33.569Z,101466.56
2023-01-04T03:24:20.084Z,101469.22
2023-01-04T03:27:26.488Z,101464.31
2023-01-04T03:30:22.270Z,101478.31
2023-01-04T03:33:23.792Z,101463.31
2023-01-04T03:36:20.086Z,101475.31
2023-01-04T03:39:40.618Z,101463.38
2023-01-04T03:42:40.220Z,101461.13
2023-01-04T03:45:37.632Z,101446.28
2023-01-04T03:48:31.554Z,101444.53
2023-01-04T03:51:15.413Z,101443.28
2023-01-04T03:54:04.113Z,101442.56
2023-01-04T03:56:33.904Z,101429.28
2023-01-04T03:59:01.145Z,101424.03
2023-01-04T04:01:32.273Z,101419.97
2023-01-04T04:04:17.815Z,101417.69
2023-01-04T04:07:03.101Z,101411.03
2023-01-04T04:09:30.135Z,101412.34
2023-01-04T04:11:58.083Z,101413.63
2023-01-04T04:14:25.350Z,101413.63
2023-01-04T04:16:52.329Z,101408.38
2023-01-04T04:19:19.305Z,101410.69
2023-01-04T04:21:48.248Z,101407.97
2023-01-04T04:24:24.239Z,101402.47
2023-01-04T04:26:56.100Z,101403.81
2023-01-04T04:29:25.289Z,101402.06
2023-01-04T04:32:01.546Z,101405.47
2023-01-04T04:34:28.583Z,101398.66
2023-01-04T04:36:55.491Z,101399.56
2023-01-04T04:39:22.430Z,101401.16
2023-01-04T04:41:49.303Z,101389.31
2023-01-04T04:44:19.361Z,101384.72
2023-01-04T04:46:48.436Z,101386.28
2023-01-04T04:49:17.793Z,101372.09
2023-01-04T04:51:46.876Z,101382.66
2023-01-04T04:54:32.222Z,101378.47
2023-01-04T04:56:59.108Z,101379.84
2023-01-04T04:59:26.030Z,101370.81
2023-01-04T05:01:53.103Z,101367.75
2023-01-04T05:04:20.193Z,101367.84
2023-01-04T05:06:48.893Z,101367.22
2023-01-04T05:09:17.149Z,101360.13
2023-01-04T05:12:04.053Z,101358.34
2023-01-04T05:14:31.132Z,101364.63
2023-01-04T05:17:04.288Z,101362.13
2023-01-04T05:19:31.266Z,101363.31
2023-01-04T05:22:00.196Z,101361.13
2023-01-04T05:24:28.131Z,101371.13
2023-01-04T05:26:59.011Z,101368.00
2023-01-04T05:29:44.501Z,101366.69
2023-01-04T05:32:11.465Z,101372.31
2023-01-04T05:34:38.621Z,101373.19
2023-01-04T05:37:05.516Z,101364.09
2023-01-04T05:39:32.546Z,101363.38
2023-01-04T05:42:17.914Z,101365.50
2023-01-04T05:44:49.842Z,101361.25
2023-01-04T05:47:17.897Z,101358.53
2023-01-04T05:49:44.963Z,101358.19
2023-01-04T05:52:12.133Z,101354.84
2023-01-04T05:54:39.284Z,101348.47
2023-01-04T05:57:06.752Z,101346.47
2023-01-04T05:59:40.908Z,101343.31
2023-01-04T06:02:25.251Z,101340.09
2023-01-04T06:04:59.090Z,101338.03
2023-01-04T06:07:28.655Z,101344.84
2023-01-04T06:09:58.751Z,101342.34
2023-01-04T06:12:25.854Z,101336.47
2023-01-04T06:14:52.747Z,101334.00
2023-01-04T06:17:19.938Z,101330.50
2023-01-04T06:19:46.950Z,101316.94
2023-01-04T06:22:16.991Z,101309.63
2023-01-04T06:24:45.937Z,101315.56
2023-01-04T06:27:21.287Z,101316.19
2023-01-04T06:29:51.665Z,101317.75
2023-01-04T06:32:20.635Z,101319.81
2023-01-04T06:34:49.574Z,101311.47
2023-01-04T06:37:16.580Z,101303.56
2023-01-04T06:39:43.578Z,101302.78
2023-01-04T06:42:30.610Z,101300.59
2023-01-04T06:44:57.854Z,101296.91
2023-01-04T06:47:25.890Z,101296.63
2023-01-04T06:49:53.883Z,101309.09
2023-01-04T06:52:23.966Z,101301.31
2023-01-04T06:54:51.924Z,101302.25
2023-01-04T06:57:18.891Z,101310.09
2023-01-04T06:59:45.809Z,101312.88
2023-01-04T07:02:22.133Z,101312.50
2023-01-04T07:04:49.185Z,101303.16
2023-01-04T07:07:16.126Z,101302.25
2023-01-04T07:09:43.078Z,101301.78
2023-01-04T07:12:10.027Z,101297.44
2023-01-04T07:14:36.935Z,101291.50
2023-01-04T07:17:04.000Z,101281.56
2023-01-04T07:19:31.134Z,101282.28
2023-01-04T07:21:58.861Z,101275.63
2023-01-04T07:24:30.456Z,101272.31
2023-01-04T07:26:59.900Z,101264.19
2023-01-04T07:29:35.059Z,101251.03
2023-01-04T07:32:11.763Z,101257.03
2023-01-04T07:34:43.852Z,101255.78
2023-01-04T07:37:10.987Z,101248.19
2023-01-04T07:39:37.921Z,101248.59
2023-01-04T07:42:05.066Z,101251.78
2023-01-04T07:44:32.286Z,101258.03
2023-01-04T07:46:59.233Z,101255.63
2023-01-04T07:49:26.147Z,101248.97
2023-01-04T07:51:53.041Z,101239.75
2023-01-04T07:54:20.543Z,101246.16
2023-01-04T07:56:52.698Z,101224.69
2023-01-04T07:59:29.787Z,101222.81
2023-01-04T08:01:56.856Z,101233.78
2023-01-04T08:04:34.828Z,101228.50
2023-01-04T08:07:02.442Z,101223.91
2023-01-04T08:09:30.720Z,101210.44
2023-01-04T08:12:17.643Z,101206.09
2023-01-04T08:14:44.576Z,101208.81
2023-01-04T08:17:11.447Z,101220.72
2023-01-04T08:19:46.813Z,101200.31
2023-01-04T08:22:14.789Z,101213.97
2023-01-04T08:24:42.511Z,101211.72
2023-01-04T08:27:11.057Z,101206.63
2023-01-04T08:29:38.627Z,101199.16
2023-01-04T08:32:15.698Z,101191.81
2023-01-04T08:34:42.769Z,101189.41
2023-01-04T08:37:15.957Z,101181.34
2023-01-04T08:39:50.015Z,101165.16
2023-01-04T08:42:28.508Z,101168.78
2023-01-04T08:45:01.202Z,101149.72
2023-01-04T08:47:31.024Z,101157.97
2023-01-04T08:49:59.459Z,101162.34
2023-01-04T08:52:28.051Z,101142.44
2023-01-04T08:54:55.121Z,101157.16
2023-01-04T08:57:22.032Z,101154.56
2023-01-04T08:59:49.877Z,101144.91
2023-01-04T09:02:31.104Z,101153.25
2023-01-04T09:05:04.088Z,101145.53
2023-01-04T09:07:33.030Z,101153.09
2023-01-04T09:10:01.066Z,101164.59
2023-01-04T09:12:31.104Z,101152.16
2023-01-04T09:15:02.478Z,101145.66
2023-01-04T09:17:29.380Z,101140.22
2023-01-04T09:19:56.348Z,101146.44
2023-01-04T09:22:23.310Z,101150.69
2023-01-04T09:24:50.435Z,101136.09
2023-01-04T09:27:17.342Z,101141.28
2023-01-04T09:29:44.240Z,101147.94
2023-01-04T09:32:16.301Z,101147.94
2023-01-04T09:34:44.319Z,101147.81
2023-01-04T09:37:11.301Z,101140.53
2023-01-04T09:39:38.264Z,101133.34
2023-01-04T09:42:24.401Z,101126.56
2023-01-04T09:45:23.245Z,101111.94
2023-01-04T09:47:55.782Z,101114.56
2023-01-04T09:50:29.980Z,101129.88
2023-01-04T09:53:15.037Z,101128.69
2023-01-04T09:56:22.418Z,101136.00
2023-01-04T09:58:57.309Z,101107.03
2023-01-04T10:02:13.549Z,101107.50
2023-01-04T10:04:47.770Z,101115.94
2023-01-04T10:07:28.301Z,101100.19
2023-01-04T10:09:57.122Z,101080.50
2023-01-04T10:13:15.536Z,101118.72
2023-01-04T10:15:57.979Z,101117.41
2023-01-04T10:19:36.749Z,101122.59
2023-01-04T10:21:57.151Z,101124.66
2023-01-04T10:25:00.799Z,101111.91
2023-01-04T10:27:45.658Z,101103.06
2023-01-04T10:31:38.467Z,101094.34
2023-01-04T10:34:27.794Z,101096.25
2023-01-04T10:37:06.805Z,101113.44
2023-01-04T10:39:36.122Z,101104.13
2023-01-04T10:42:38.039Z,101095.84
2023-01-04T10:45:19.787Z,101102.69
2023-01-04T10:48:05.747Z,101108.03
2023-01-04T10:51:09.281Z,101102.38
2023-01-04T10:53:47.311Z,101104.13
2023-01-04T10:56:53.342Z,101098.31
2023-01-04T10:59:43.684Z,101094.28
2023-01-04T11:02:53.030Z,101113.31
2023-01-04T11:05:39.098Z,101107.19
2023-01-04T11:08:31.505Z,101111.28
2023-01-04T11:11:12.388Z,101104.13
2023-01-04T11:13:43.388Z,101106.72
2023-01-04T11:16:11.161Z,101105.91
2023-01-04T11:18:41.297Z,101097.78
2023-01-04T11:21:13.073Z,101106.13
2023-01-04T11:23:40.465Z,101095.66
2023-01-04T11:26:21.889Z,101083.06
2023-01-04T11:28:55.128Z,101090.22
2023-01-04T11:31:36.609Z,101087.28
2023-01-04T11:34:04.752Z,101094.50
2023-01-04T11:36:32.803Z,101100.06
2023-01-04T11:39:00.164Z,101107.84
2023-01-04T11:41:27.861Z,101102.88
2023-01-04T11:44:01.110Z,101089.19
2023-01-04T11:46:29.718Z,101087.78
2023-01-04T11:49:20.327Z,101091.56
2023-01-04T11:51:59.530Z,101086.47
2023-01-04T11:54:27.457Z,101084.94
2023-01-04T11:57:11.737Z,101062.41
2023-01-04T12:00:09.061Z,101066.16
2023-01-04T12:03:01.142Z,101056.72
2023-01-04T12:05:43.324Z,101029.66
2023-01-04T12:08:42.961Z,101040.28
2023-01-04T12:11:30.096Z,101038.81
2023-01-04T12:14:22.641Z,101028.09
2023-01-04T12:16:54.229Z,101030.69
2023-01-04T12:19:29.574Z,101020.16
2023-01-04T12:22:02.315Z,101001.38
2023-01-04T12:24:33.214Z,100999.13
2023-01-04T12:27:01.756Z,100991.75
2023-01-04T12:29:46.605Z,101003.19
2023-01-04T12:32:13.531Z,101014.81
2023-01-04T12:34:46.288Z,101000.94
2023-01-04T12:37:45.751Z,101006.38
2023-01-04T12:40:54.365Z,101011.13
2023-01-04T12:43:26.711Z,100999.06
2023-01-04T12:46:52.416Z,101000.13
2023-01-04T12:49:26.414Z,101005.31
2023-01-04T12:55:00.649Z,100999.06
2023-01-04T12:57:37.220Z,100989.81
2023-01-04T13:00:12.548Z,100993.66
2023-01-04T13:02:52.700Z,101001.19
2023-01-04T13:08:12.652Z,100988.03
2023-01-04T13:10:51.857Z,100988.28
2023-01-04T13:13:51.179Z,100985.81
2023-01-04T13:17:01.869Z,100980.44
2023-01-04T13:19:29.210Z,100977.72
2023-01-04T13:21:58.631Z,100966.72
2023-01-04T13:24:50.913Z,100962.06
2023-01-04T13:28:17.105Z,100959.59
2023-01-04T13:30:45.740Z,100969.59
2023-01-04T13:33:28.591Z,100957.00
2023-01-04T13:36:09.860Z,100952.69
2023-01-04T13:38:39.791Z,100948.69
2023-01-04T13:41:22.035Z,100942.69
2023-01-04T13:44:02.993Z,100931.59
2023-01-04T13:46:57.258Z,100937.47
2023-01-04T13:49:27.702Z,100937.56
2023-01-04T13:52:11.325Z,100940.91
2023-01-04T13:55:22.400Z,100953.44
2023-01-04T13:58:05.171Z,100955.97
2023-01-04T14:01:29.521Z,100946.66
2023-01-04T14:04:24.744Z,100952.75
2023-01-04T14:07:02.173Z,100940.63
2023-01-04T14:09:50.680Z,100945.72
2023-01-04T14:12:21.669Z,100955.34
2023-01-04T14:15:23.177Z,100957.56
2023-01-04T14:17:52.673Z,100954.72
2023-01-04T14:20:19.443Z,100945.84
2023-01-04T14:22:46.285Z,100953.78
2023-01-04T14:25:36.998Z,100937.06
2023-01-04T14:28:19.536Z,100934.91
2023-01-04T14:31:07.247Z,100932.44
2023-01-04T14:33:51.224Z,100937.00
2023-01-04T14:36:32.635Z,100945.84
2023-01-04T14:39:13.050Z,100939.25
2023-01-04T14:41:42.139Z,100941.41
2023-01-04T14:44:17.236Z,100943.31
2023-01-04T14:46:58.235Z,100951.09
2023-01-04T14:49:28.635Z,100941.22
2023-01-04T14:52:02.648Z,100937.72
2023-01-04T14:54:35.236Z,100940.34
2023-01-04T14:57:14.687Z,100946.41
2023-01-04T14:59:44.154Z,100926.16
2023-01-04T15:02:33.663Z,100928.69
2023-01-04T15:05:37.618Z,100930.50
2023-01-04T15:08:12.764Z,100943.03
2023-01-04T15:10:54.612Z,100943.34
2023-01-04T15:13:25.052Z,100946.41
2023-01-04T15:15:52.152Z,100949.50
2023-01-04T15:18:19.258Z,100947.03
2023-01-04T15:20:46.148Z,100938.84
2023-01-04T15:23:13.126Z,100946.09
2023-01-04T15:25:41.106Z,100948.69
2023-01-04T15:28:14.654Z,100946.69
2023-01-04T15:30:44.450Z,100946.56
2023-01-04T15:33:11.549Z,100963.56
2023-01-04T15:35:39.575Z,100945.94
2023-01-04T15:38:09.500Z,100946.69
2023-01-04T15:40:41.009Z,100945.03
2023-01-04T15:43:10.278Z,100936.03
2023-01-04T15:45:39.580Z,100941.53
2023-01-04T15:48:08.597Z,100938.56
2023-01-04T15:50:38.686Z,100929.72
2023-01-04T15:53:09.954Z,100944.41
2023-01-04T15:55:41.949Z,100939.66
2023-01-04T15:58:10.158Z,100936.25
2023-01-04T16:00:38.602Z,100949.09
2023-01-04T16:03:12.689Z,100930.59
2023-01-04T16:05:42.711Z,100939.22
2023-01-04T16:08:18.091Z,100943.59
2023-01-04T16:10:46.099Z,100943.72
2023-01-04T16:13:12.999Z,100927.44
2023-01-04T16:15:39.941Z,100935.69
2023-01-04T16:18:06.893Z,100936.19
2023-01-04T16:20:33.927Z,100935.25
2023-01-04T16:23:00.842Z,100947.03
2023-01-04T16:25:27.724Z,100940.13
2023-01-04T16:27:54.605Z,100935.25
2023-01-04T16:30:27.817Z,100927.47
2023-01-04T16:32:56.535Z,100923.91
2023-01-04T16:35:23.427Z,100921.81
2023-01-04T16:37:50.379Z,100912.47
2023-01-04T16:40:17.347Z,100927.00
2023-01-04T16:42:50.642Z,100917.59
2023-01-04T16:45:19.054Z,100923.47
2023-01-04T16:47:46.192Z,100934.09
2023-01-04T16:50:14.122Z,100932.81
2023-01-04T16:52:42.183Z,100934.06
2023-01-04T16:55:24.101Z,100933.41
2023-01-04T16:57:52.465Z,100925.50
2023-01-04T17:00:19.633Z,100920.19
2023-01-04T17:02:46.658Z,100922.16
2023-01-04T17:05:13.746Z,100908.03
2023-01-04T17:07:42.728Z,100916.41
2023-01-04T17:10:09.837Z,100924.88
2023-01-04T17:12:48.721Z,100926.91
2023-01-04T17:15:44.671Z,100920.19
2023-01-04T17:18:14.617Z,100917.84
2023-01-04T17:20:41.520Z,100919.59
2023-01-04T17:23:09.439Z,100913.09
2023-01-04T17:25:38.935Z,100917.72
2023-01-04T17:28:05.823Z,100907.69
2023-01-04T17:30:32.695Z,100903.22
2023-01-04T17:32:59.596Z,100911.59
2023-01-04T17:35:26.522Z,100903.22
2023-01-04T17:37:53.454Z,100911.31
2023-01-04T17:40:23.187Z,100899.91
2023-01-04T17:42:50.846Z,100903.34
2023-01-04T17:45:21.620Z,100895.75
2023-01-04T17:47:51.125Z,100895.88
2023-01-04T17:50:19.368Z,100889.63
2023-01-04T17:52:59.225Z,100883.84
2023-01-04T17:55:29.246Z,100890.81
2023-01-04T17:57:56.168Z,100880.88
2023-01-04T18:00:23.338Z,100873.84
2023-01-04T18:02:56.503Z,100880.78
2023-01-04T18:05:23.475Z,100867.56
2023-01-04T18:07:50.407Z,100877.59
2023-01-04T18:10:27.237Z,100879.16
2023-01-04T18:13:13.932Z,100878.41
2023-01-04T18:16:02.085Z,100879.03
2023-01-04T18:18:30.921Z,100884.78
2023-01-04T18:20:59.214Z,100875.94
2023-01-04T18:23:31.898Z,100867.56
2023-01-04T18:26:08.136Z,100875.22
2023-01-04T18:28:46.500Z,100872.50
2023-01-04T18:31:22.778Z,100872.97
2023-01-04T18:34:10.676Z,100881.00
2023-01-04T18:36:42.877Z,100876.06
2023-01-04T18:39:11.852Z,100877.00
2023-01-04T18:41:39.501Z,100876.16
2023-01-04T18:46:56.764Z,100884.28
2023-01-04T18:49:31.519Z,100884.28
2023-01-04T18:51:59.536Z,100889.00
2023-01-04T18:54:26.524Z,100894.09
2023-01-04T18:56:58.928Z,100894.41
2023-01-04T18:59:29.593Z,100883.00
2023-01-04T19:02:01.170Z,100866.47
2023-01-04T19:04:36.777Z,100854.75
2023-01-04T19:07:21.038Z,100863.88
2023-01-04T19:09:56.085Z,100866.34
2023-01-04T19:12:39.405Z,100869.38
2023-01-04T19:15:07.513Z,100873.38
2023-01-04T19:17:35.383Z,100869.59
2023-01-04T19:20:02.715Z,100866.75
2023-01-04T19:22:29.620Z,100877.72
2023-01-04T19:24:56.902Z,100871.19
2023-01-04T19:27:23.871Z,100870.94
2023-01-04T19:30:18.855Z,100866.91
2023-01-04T19:32:45.731Z,100872.59
2023-01-04T19:35:12.798Z,100870.25
2023-01-04T19:37:40.703Z,100866.59
2023-01-04T19:40:09.430Z,100874.81
2023-01-04T19:42:36.356Z,100870.94
2023-01-04T19:45:11.750Z,100875.84
2023-01-04T19:47:42.729Z,100868.75
2023-01-04T19:50:10.049Z,100874.50
2023-01-04T19:52:38.264Z,100888.84
2023-01-04T19:55:06.359Z,100873.38
2023-01-04T19:57:33.492Z,100862.88
2023-01-04T20:00:00.473Z,100854.75
2023-01-04T20:02:28.520Z,100865.06
2023-01-04T20:04:56.713Z,100864.63
2023-01-04T20:07:26.005Z,100878.28
2023-01-04T20:09:57.061Z,100874.72
2023-01-04T20:12:30.093Z,100878.13
2023-01-04T20:14:57.005Z,100882.03
2023-01-04T20:17:23.943Z,100882.38
2023-01-04T20:19:50.839Z,100877.75
2023-01-04T20:22:32.519Z,100885.22
2023-01-04T20:25:00.516Z,100888.13
2023-01-04T20:27:27.489Z,100885.19
2023-01-04T20:29:54.410Z,100866.59
2023-01-04T20:32:23.733Z,100882.81
2023-01-04T20:34:57.816Z,100874.88
2023-01-04T20:37:28.847Z,100876.06
2023-01-04T20:39:58.906Z,100894.19
2023-01-04T20:42:45.159Z,100890.22
2023-01-04T20:45:20.363Z,100893.84
2023-01-04T20:47:47.271Z,100891.13
2023-01-04T20:50:14.272Z,100881.50
2023-01-04T20:52:42.175Z,100895.50
2023-01-04T20:55:13.882Z,100904.53
2023-01-04T20:57:44.037Z,100902.06
2023-01-04T21:00:11.936Z,100907.75
2023-01-04T21:02:39.051Z,100908.97
2023-01-04T21:05:06.695Z,100905.81
2023-01-04T21:07:33.668Z,100910.88
2023-01-04T21:10:00.569Z,100903.41
2023-01-04T21:12:27.559Z,100897.50
2023-01-04T21:14:54.483Z,100898.19
2023-01-04T21:17:21.500Z,100899.50
2023-01-04T21:19:48.361Z,100896.78
2023-01-04T21:22:22.313Z,100886.81
2023-01-04T21:24:58.436Z,100887.63
2023-01-04T21:27:26.543Z,100876.66
2023-01-04T21:29:54.461Z,100858.03
2023-01-04T21:32:21.405Z,100862.00
2023-01-04T21:34:54.483Z,100872.84
2023-01-04T21:37:24.918Z,100857.22
2023-01-04T21:39:52.904Z,100854.50
2023-01-04T21:42:20.066Z,100860.78
2023-01-04T21:44:46.943Z,100850.09
2023-01-04T21:47:13.914Z,100839.28
2023-01-04T21:49:43.799Z,100853.25
2023-01-04T21:52:11.370Z,100850.63
2023-01-04T21:54:39.015Z,100842.97
2023-01-04T21:57:13.219Z,100824.06
2023-01-04T21:59:42.385Z,100837.75
2023-01-04T22:02:16.079Z,100841.03
2023-01-04T22:04:53.351Z,100838.03
2023-01-04T22:07:22.429Z,100827.31
2023-01-04T22:09:57.199Z,100825.13
2023-01-04T22:12:24.585Z,100831.31
2023-01-04T22:14:51.849Z,100823.06
2023-01-04T22:17:19.801Z,100830.03
2023-01-04T22:19:47.021Z,100825.09
2023-01-04T22:22:13.946Z,100819.09
2023-01-04T22:24:40.805Z,100804.16
2023-01-04T22:27:07.739Z,100810.84
2023-01-04T22:29:34.669Z,100801.53
2023-01-04T22:32:01.686Z,100791.66
2023-01-04T22:34:28.773Z,100782.75
2023-01-04T22:36:55.683Z,100780.56
2023-01-04T22:39:22.708Z,100781.25
2023-01-04T22:41:49.887Z,100784.81
2023-01-04T22:44:17.811Z,100790.16
2023-01-04T22:46:45.855Z,100792.88
2023-01-04T22:49:12.796Z,100791.94
2023-01-04T22:51:42.792Z,100793.28
2023-01-04T22:54:16.955Z,100787.25
2023-01-04T22:56:45.986Z,100792.78
2023-01-04T22:59:13.098Z,100799.91
2023-01-04T23:01:46.309Z,100801.66
2023-01-04T23:04:16.389Z,100806.16
2023-01-04T23:06:43.924Z,100809.97
2023-01-04T23:09:16.053Z,100790.69
2023-01-04T23:11:43.646Z,100797.91
2023-01-04T23:14:15.414Z,100778.34
2023-01-04T23:16:48.521Z,100795.84
2023-01-04T23:19:15.479Z,100803.13
2023-01-04T23:21:42.993Z,100795.31
2023-01-04T23:24:15.208Z,100802.03
2023-01-04T23:26:43.814Z,100793.78
2023-01-04T23:29:10.845Z,100788.06
2023-01-04T23:31:37.782Z,100796.41
2023-01-04T23:34:13.356Z,100782.03
2023-01-04T23:36:42.343Z,100778.31
2023-01-04T23:39:15.235Z,100781.72
2023-01-04T23:41:48.289Z,100776.78
2023-01-04T23:44:32.135Z,100778.69
2023-01-04T23:49:32.743Z,100790.47
2023-01-04T23:52:00.873Z,100769.38
2023-01-04T23:54:28.223Z,100791.97
2023-01-04T23:56:55.743Z,100780.63
2023-01-04T23:59:24.379Z,100780.63
